Wednesday, April 25, 2018, 1:09 AM EDT
Back to Local

KHZY, Ashtabula County Airport

Location: Jefferson, OH, United States Lat: 41.783
Local Time: 1:09 AM EDT ( 5:09 GMT) Lon: -80.7
Time Zone: US/Eastern Elev: 925 ft

Show me the last for .
Show Decoded

2018-04-25 00:53 METAR KHZY 250453Z AUTO 11004KT 10SM OVC045 11/10 A2994 RMK AO2 RAE05 SLP141
                 P0000 T01060100 401440106 =
2018-04-24 23:53 METAR KHZY 250353Z AUTO 14006KT 6SM -RA BR BKN047 OVC055 11/10 A2997 RMK AO2
                 SLP147 P0000 T01060100 =
2018-04-24 22:53 METAR KHZY 250253Z AUTO 13007KT 10SM -RA SCT046 BKN065 OVC085 11/10 A2998 RMK
                 AO2 SLP153 P0000 60000 T01060100 58008 =
2018-04-24 21:53 METAR KHZY 250153Z AUTO 13007KT 10SM -RA OVC060 11/10 A3000 RMK AO2 RAE0058B38
                 SLP161 P0000 T01060100 =
2018-04-24 20:53 METAR KHZY 250053Z AUTO 13008KT 9SM -RA FEW014 BKN060 OVC070 11/10 A3001 RMK AO2
                 SLP162 P0000 T01060100 =
2018-04-24 19:53 METAR KHZY 242353Z AUTO 14009KT 8SM -RA FEW060 OVC090 11/09 A3001 RMK AO2
                 RAE03B52 SLP162 P0000 60000 T01110094 10117 20111 57009 =
2018-04-24 18:53 METAR KHZY 242253Z AUTO 14010G18KT 10SM -RA OVC085 12/10 A3002 RMK AO2
                 RAB07E27B51 SLP165 P0000 T01170100 =
2018-04-24 17:53 METAR KHZY 242153Z AUTO 14009KT 10SM FEW014 SCT070 OVC085 12/11 A3003 RMK AO2
                 RAE05 SLP168 P0000 T01170106 =
2018-04-24 16:53 METAR KHZY 242053Z AUTO 14009G18KT 10SM -RA FEW014 OVC070 12/10 A3004 RMK AO2
                 RAB1954 SLP171 P0000 60000 T01170100 58024 =
2018-04-24 16:16 METAR KHZY 242016Z AUTO 14012G21KT 10SM -RA SCT013 BKN060 OVC080 11/10 A3005 RMK
                 AO2 RAB1954 P0000 T01110100 =
2018-04-24 16:11 METAR KHZY 242011Z AUTO 14012KT 10SM -RA BKN014 BKN060 OVC080 11/10 A3005 RMK
                 AO2 RAB1954 P0000 T01110100 =
2018-04-24 15:53 METAR KHZY 241953Z AUTO 13010KT 8SM SCT013 BKN017 OVC055 12/10 A3006 RMK AO2
                 RAE28 SLP181 P0000 T01170100 =
2018-04-24 15:42 METAR KHZY 241942Z AUTO 14010KT 7SM SCT013 BKN018 OVC049 11/10 A3007 RMK AO2
                 RAE28 P0000 T01110100 =
2018-04-24 14:53 METAR KHZY 241853Z AUTO 13010G20KT 7SM -RA FEW017 OVC047 11/09 A3009 RMK AO2
                 SLP189 P0000 T01110094 =
2018-04-24 13:53 METAR KHZY 241753Z AUTO 12009G15KT 6SM -RA FEW022 OVC041 12/09 A3011 RMK AO2
                 RAB29 SLP196 P0000 60000 T01170089 10144 20111 58015 =
2018-04-24 13:36 METAR KHZY 241736Z AUTO 14008G16KT 9SM -RA SCT028 OVC041 12/08 A3012 RMK AO2
                 RAB29 P0000 T01170083 =
2018-04-24 13:11 METAR KHZY 241711Z AUTO 14014G19KT 10SM BKN028 BKN038 OVC047 12/07 A3012 RMK AO2
                 T01220067 =
2018-04-24 12:53 METAR KHZY 241653Z AUTO 14012G18KT 10SM FEW028 BKN039 OVC047 12/07 A3013 RMK AO2
                 SLP201 T01220067 =
2018-04-24 11:53 METAR KHZY 241553Z AUTO 15015G22KT 10SM OVC042 13/05 A3014 RMK AO2 SLP204
                 T01330050 =
2018-04-24 10:53 METAR KHZY 241453Z AUTO 14014G24KT 10SM SCT048 BKN095 14/04 A3015 RMK AO2 SLP209
                 T01390039 58011 =
2018-04-24 09:53 METAR KHZY 241353Z AUTO 14013KT 10SM OVC095 13/04 A3017 RMK AO2 SLP214 T01280044
                 =
2018-04-24 08:53 METAR KHZY 241253Z AUTO 13012KT 10SM FEW070 BKN095 12/06 A3018 RMK AO2 SLP217
                 T01220061 =
2018-04-24 07:53 METAR KHZY 241153Z AUTO 13009KT 10SM OVC065 11/07 A3019 RMK AO2 SLP220 60000
                 T01110067 10133 20111 58001 =
2018-04-24 06:53 METAR KHZY 241053Z AUTO 13010KT 10SM OVC060 12/07 A3019 RMK AO2 SLP220 T01170072
                 =
2018-04-24 05:53 METAR KHZY 240953Z AUTO 14010KT 10SM SCT055 OVC080 12/08 A3019 RMK AO2
                 RAB0855E08 SLP219 P0000 T01220078 =
2018-04-24 04:53 METAR KHZY 240853Z AUTO 14007KT 10SM OVC090 13/08 A3019 RMK AO2 SLP219 T01330078
                 56002 =
2018-04-24 03:53 METAR KHZY 240753Z AUTO 08006KT 10SM OVC090 12/08 A3019 RMK AO2 SLP221 T01170083
                 =
2018-04-24 02:53 METAR KHZY 240653Z AUTO 03004KT 10SM OVC090 12/07 A3018 RMK AO2 SLP219 T01220072
                 =
2018-04-24 01:53 METAR KHZY 240553Z AUTO 36003KT 10SM FEW100 13/07 A3019 RMK AO2 SLP221 T01280067
                 10194 20128 58001 =

Support USWX by starting your Amazon purchase here.